createdAt,value
2023-12-14T00:02:05.335Z,2.76486
2023-12-14T00:05:06.888Z,2.72116
2023-12-14T00:08:08.501Z,2.73921
2023-12-14T00:11:10.244Z,2.69804
2023-12-14T00:14:11.906Z,2.65148
2023-12-14T00:17:13.492Z,2.62329
2023-12-14T00:20:15.082Z,2.66035
2023-12-14T00:23:17.081Z,2.68695
2023-12-14T00:26:18.675Z,2.6442
2023-12-14T00:29:20.338Z,2.61284
2023-12-14T00:32:21.920Z,2.58307
2023-12-14T00:35:23.457Z,2.54601
2023-12-14T00:38:24.924Z,2.53936
2023-12-14T00:41:26.427Z,2.51909
2023-12-14T00:44:29.526Z,2.46874
2023-12-14T00:47:31.076Z,2.46937
2023-12-14T00:50:32.591Z,2.42661
2023-12-14T00:53:34.355Z,2.40603
2023-12-14T00:56:35.858Z,2.37119
2023-12-14T00:59:37.522Z,2.35789
2023-12-14T01:02:39.140Z,2.37056
2023-12-14T01:05:40.884Z,2.33508
2023-12-14T01:08:42.510Z,2.29645
2023-12-14T01:11:43.986Z,2.24387
2023-12-14T01:14:45.665Z,2.2008
2023-12-14T01:17:47.204Z,2.15044
2023-12-14T01:20:48.746Z,2.17198
2023-12-14T01:23:51.346Z,2.2198
2023-12-14T01:26:53.027Z,2.27111
2023-12-14T01:29:54.553Z,2.24672
2023-12-14T01:32:56.116Z,2.20017
2023-12-14T01:35:57.766Z,2.14537
2023-12-14T01:38:59.240Z,2.04593
2023-12-14T01:42:00.732Z,2.01046
2023-12-14T01:45:02.305Z,2.05891
2023-12-14T01:48:03.882Z,2.04149
2023-12-14T01:51:05.495Z,2.0814
2023-12-14T01:54:06.982Z,2.12764
2023-12-14T01:57:08.476Z,2.01236
2023-12-14T02:00:09.981Z,1.87427
2023-12-14T02:03:11.492Z,1.80174
2023-12-14T02:06:13.006Z,1.82328
2023-12-14T02:09:14.511Z,1.89391
2023-12-14T02:12:15.986Z,2.01046
2023-12-14T02:15:18.520Z,1.88219
2023-12-14T02:18:20.049Z,1.83531
2023-12-14T02:21:21.602Z,1.88124
2023-12-14T02:24:23.127Z,1.92463
2023-12-14T02:27:24.626Z,2.03991
2023-12-14T02:30:26.152Z,2.15551
2023-12-14T02:33:27.687Z,2.13176
2023-12-14T02:36:29.205Z,2.08805
2023-12-14T02:39:30.708Z,2.14221
2023-12-14T02:42:32.571Z,2.11402
2023-12-14T02:45:34.341Z,2.09913
2023-12-14T02:48:35.933Z,2.22487
2023-12-14T02:51:37.526Z,2.23564
2023-12-14T02:54:39.013Z,2.22804
2023-12-14T02:57:40.524Z,2.20112
2023-12-14T03:00:42.047Z,2.15108
2023-12-14T03:03:43.590Z,2.30436
2023-12-14T03:06:45.078Z,2.24165
2023-12-14T03:09:47.242Z,2.21568
2023-12-14T03:12:48.750Z,2.18116
2023-12-14T03:15:50.433Z,2.25337
2023-12-14T03:18:52.004Z,2.31228
2023-12-14T03:21:53.545Z,2.33952
2023-12-14T03:24:55.046Z,2.24007
2023-12-14T03:27:56.526Z,2.07063
2023-12-14T03:30:58.050Z,1.92463
2023-12-14T03:33:59.583Z,1.94173
2023-12-14T03:37:01.087Z,2.1232
2023-12-14T03:40:02.627Z,2.25306
2023-12-14T03:43:04.128Z,2.28536
2023-12-14T03:46:05.648Z,2.22899
2023-12-14T03:49:07.176Z,2.11529
2023-12-14T03:52:08.703Z,2.10389
2023-12-14T03:55:10.193Z,2.17356
2023-12-14T03:58:11.691Z,2.18718
2023-12-14T04:01:13.222Z,2.18433
2023-12-14T04:04:14.742Z,2.21853
2023-12-14T04:07:17.303Z,2.13397
2023-12-14T04:10:18.909Z,2.10262
2023-12-14T04:13:20.438Z,2.15298
2023-12-14T04:16:24.432Z,2.32242
2023-12-14T04:19:27.417Z,2.34015
2023-12-14T04:22:28.902Z,2.3088
2023-12-14T04:25:30.611Z,2.4282
2023-12-14T04:28:32.280Z,2.52163
2023-12-14T04:31:33.969Z,2.54887
2023-12-14T04:34:35.504Z,2.56787
2023-12-14T04:37:37.061Z,2.74364
2023-12-14T04:40:41.297Z,2.67872
2023-12-14T04:43:43.660Z,2.70247
2023-12-14T04:46:45.212Z,2.84372
2023-12-14T04:49:46.749Z,2.92037
2023-12-14T04:52:48.337Z,2.98973
2023-12-14T04:55:50.044Z,3.05909
2023-12-14T04:58:51.611Z,3.06606
2023-12-14T05:01:53.199Z,3.2222
2023-12-14T05:04:54.745Z,3.36219
2023-12-14T05:07:56.371Z,3.32418
2023-12-14T05:10:58.659Z,3.41571
2023-12-14T05:14:00.256Z,3.47684
2023-12-14T05:17:02.004Z,3.23455
2023-12-14T05:20:03.532Z,3.30961
2023-12-14T05:23:05.075Z,3.37264
2023-12-14T05:26:06.581Z,3.33495
2023-12-14T05:29:08.217Z,3.36219
2023-12-14T05:32:09.836Z,3.34572
2023-12-14T05:35:11.447Z,3.28776
2023-12-14T05:38:13.058Z,3.30739
2023-12-14T05:41:14.641Z,3.32196
2023-12-14T05:44:16.230Z,3.26749
2023-12-14T05:47:17.772Z,3.32513
2023-12-14T05:50:19.321Z,3.29631
2023-12-14T05:53:20.918Z,3.18704
2023-12-14T05:56:22.460Z,3.2279
2023-12-14T05:59:23.932Z,3.36314
2023-12-14T06:02:25.747Z,3.25735
2023-12-14T06:05:27.356Z,3.27034
2023-12-14T06:08:28.994Z,3.39576
2023-12-14T06:11:30.593Z,3.53986
2023-12-14T06:14:32.147Z,3.65325
2023-12-14T06:17:33.663Z,3.60827
2023-12-14T06:20:35.267Z,3.68302
2023-12-14T06:23:36.768Z,3.67352
2023-12-14T06:26:38.249Z,3.69315
2023-12-14T06:29:39.729Z,3.70709
2023-12-14T06:32:41.610Z,3.75301
2023-12-14T06:35:43.520Z,3.74383
2023-12-14T06:38:45.016Z,3.70076
2023-12-14T06:41:46.524Z,3.70202
2023-12-14T06:44:48.049Z,3.78184
2023-12-14T06:47:49.629Z,3.67954
2023-12-14T06:50:51.160Z,3.63583
2023-12-14T06:53:52.669Z,3.66718
2023-12-14T06:56:54.862Z,3.50819
2023-12-14T06:59:56.369Z,3.61493
2023-12-14T07:02:57.897Z,3.67795
2023-12-14T07:05:59.935Z,3.67288
2023-12-14T07:09:01.496Z,3.7508
2023-12-14T07:12:03.090Z,3.81541
2023-12-14T07:15:04.647Z,3.87558
2023-12-14T07:18:06.232Z,3.95888
2023-12-14T07:21:07.786Z,3.92784
2023-12-14T07:24:09.328Z,3.99119
2023-12-14T07:27:10.823Z,3.92911
2023-12-14T07:30:12.437Z,3.80622
2023-12-14T07:33:14.034Z,3.81382
2023-12-14T07:36:15.571Z,3.75523
2023-12-14T07:39:17.107Z,3.70234
2023-12-14T07:42:18.784Z,3.7964
2023-12-14T07:45:20.485Z,3.747
2023-12-14T07:48:22.510Z,3.75776
2023-12-14T07:51:25.298Z,3.71342
2023-12-14T07:54:26.947Z,3.73021
2023-12-14T07:57:28.538Z,3.68967
2023-12-14T08:00:30.047Z,3.75175
2023-12-14T08:03:31.798Z,3.63013
2023-12-14T08:06:33.415Z,3.6751
2023-12-14T08:09:34.984Z,3.71152
2023-12-14T08:12:37.117Z,3.80717
2023-12-14T08:15:39.978Z,3.87147
2023-12-14T08:18:41.595Z,3.95033
2023-12-14T08:21:43.163Z,3.97788
2023-12-14T08:24:44.651Z,4.05643
2023-12-14T08:27:46.160Z,4.07227
2023-12-14T08:30:48.078Z,4.08905
2023-12-14T08:33:51.418Z,4.2018
2023-12-14T08:36:53.096Z,4.15208
2023-12-14T08:39:56.348Z,4.08873
2023-12-14T08:42:57.925Z,4.0558
2023-12-14T08:45:59.410Z,4.0862
2023-12-14T08:49:01.926Z,4.03331
2023-12-14T08:52:03.468Z,4.11977
2023-12-14T08:55:04.978Z,4.09095
2023-12-14T08:58:06.466Z,4.21796
2023-12-14T09:01:07.991Z,4.26926
2023-12-14T09:04:09.574Z,4.24551
2023-12-14T09:07:11.114Z,4.29302
2023-12-14T09:10:12.680Z,4.26641
2023-12-14T09:13:14.199Z,4.17773
2023-12-14T09:16:15.687Z,4.15144
2023-12-14T09:19:17.278Z,4.20497
2023-12-14T09:22:18.846Z,4.26895
2023-12-14T09:25:20.308Z,4.23728
2023-12-14T09:28:21.807Z,4.30759
2023-12-14T09:31:23.455Z,4.23316
2023-12-14T09:34:25.051Z,4.28668
2023-12-14T09:37:26.585Z,4.36808
2023-12-14T09:40:28.922Z,4.40957
2023-12-14T09:43:30.454Z,4.43934
2023-12-14T09:46:32.351Z,4.42002
2023-12-14T09:49:33.863Z,4.40007
2023-12-14T09:52:35.397Z,4.52042
2023-12-14T09:55:36.973Z,4.55938
2023-12-14T09:58:38.550Z,4.58535
2023-12-14T10:01:40.137Z,4.59073
2023-12-14T10:04:41.788Z,4.60594
2023-12-14T10:07:43.313Z,4.6734
2023-12-14T10:10:44.868Z,4.72122
2023-12-14T10:13:46.406Z,4.72312
2023-12-14T10:16:48.067Z,4.86058
2023-12-14T10:19:49.723Z,4.89637
2023-12-14T10:22:51.395Z,4.94926
2023-12-14T10:25:52.990Z,4.92012
2023-12-14T10:28:54.628Z,4.97682
2023-12-14T10:31:56.215Z,4.8913
2023-12-14T10:34:57.789Z,4.98283
2023-12-14T10:37:59.352Z,4.9594
2023-12-14T10:41:00.914Z,4.95845
2023-12-14T10:44:18.842Z,4.85425
2023-12-14T10:47:28.819Z,4.93533
2023-12-14T10:50:30.367Z,4.99107
2023-12-14T10:53:31.861Z,5.11554
2023-12-14T10:56:33.378Z,5.14246
2023-12-14T10:59:34.905Z,5.20961
2023-12-14T11:02:36.450Z,5.31951
2023-12-14T11:05:38.066Z,5.34896
2023-12-14T11:08:41.596Z,5.45792
2023-12-14T11:11:44.331Z,5.58302
2023-12-14T11:14:45.827Z,5.63845
2023-12-14T11:17:47.352Z,5.7379
2023-12-14T11:20:48.921Z,5.81233
2023-12-14T11:23:50.402Z,5.85509
2023-12-14T11:26:51.992Z,5.96499
2023-12-14T11:29:53.692Z,5.96468
2023-12-14T11:32:56.242Z,5.95581
2023-12-14T11:35:57.791Z,6.00363
2023-12-14T11:38:59.315Z,5.96468
2023-12-14T11:42:00.800Z,5.99381
2023-12-14T11:45:02.367Z,6.05684
2023-12-14T11:48:03.965Z,6.02802
2023-12-14T11:51:05.560Z,6.13887
2023-12-14T11:54:07.061Z,6.16928
2023-12-14T11:57:08.573Z,6.2624
2023-12-14T12:00:10.075Z,6.33493
2023-12-14T12:03:11.561Z,6.32859
2023-12-14T12:06:13.300Z,6.30104
2023-12-14T12:09:14.846Z,6.33714
2023-12-14T12:12:16.384Z,6.34031
2023-12-14T12:15:17.927Z,6.29882
2023-12-14T12:18:19.895Z,6.39384
2023-12-14T12:21:21.468Z,6.50564
2023-12-14T12:24:27.103Z,6.52623
2023-12-14T12:27:29.299Z,6.64817
2023-12-14T12:30:30.840Z,6.65672
2023-12-14T12:33:32.514Z,6.65197
2023-12-14T12:36:35.687Z,6.64564
2023-12-14T12:39:38.421Z,6.68934
2023-12-14T12:42:39.918Z,6.56899
2023-12-14T12:45:41.475Z,6.54238
2023-12-14T12:48:43.379Z,6.45212
2023-12-14T12:51:45.020Z,6.44261
2023-12-14T12:54:46.608Z,6.38655
2023-12-14T12:57:48.152Z,6.3476
2023-12-14T13:00:49.720Z,6.41411
2023-12-14T13:03:51.239Z,6.40176
2023-12-14T13:06:52.761Z,6.49297
2023-12-14T13:09:54.260Z,6.4537
2023-12-14T13:12:55.792Z,6.58577
2023-12-14T13:15:57.322Z,6.55949
2023-12-14T13:18:59.006Z,6.50343
2023-12-14T13:22:00.640Z,6.47587
2023-12-14T13:25:02.226Z,6.53066
2023-12-14T13:28:03.738Z,6.55664
2023-12-14T13:31:05.345Z,6.61555
2023-12-14T13:34:08.013Z,6.68016
2023-12-14T13:37:09.527Z,6.7093
2023-12-14T13:40:11.101Z,6.69441
2023-12-14T13:43:12.783Z,6.67129
2023-12-14T13:46:20.154Z,6.70771
2023-12-14T13:49:23.719Z,6.79006
2023-12-14T13:52:27.587Z,6.86418
2023-12-14T13:55:30.492Z,6.94874
2023-12-14T13:58:32.076Z,6.96426
2023-12-14T14:01:33.687Z,6.97852
2023-12-14T14:04:36.251Z,6.88382
2023-12-14T14:07:38.034Z,6.79355
2023-12-14T14:10:39.822Z,6.74731
2023-12-14T14:13:41.412Z,6.65957
2023-12-14T14:16:42.995Z,6.52971
2023-12-14T14:19:44.503Z,6.56297
2023-12-14T14:22:46.012Z,6.56139
2023-12-14T14:25:47.582Z,6.52401
2023-12-14T14:28:49.236Z,6.49392
2023-12-14T14:31:50.809Z,6.3495
2023-12-14T14:34:52.379Z,6.23548
2023-12-14T14:37:53.942Z,6.13792
2023-12-14T14:40:55.464Z,6.13602
2023-12-14T14:43:56.985Z,6.14521
2023-12-14T14:46:59.318Z,6.15978
2023-12-14T14:50:00.945Z,6.15344
2023-12-14T14:53:02.620Z,6.16896
2023-12-14T14:56:04.281Z,6.20665
2023-12-14T14:59:05.835Z,6.18037
2023-12-14T15:02:07.417Z,6.1772
2023-12-14T15:05:09.024Z,6.1791
2023-12-14T15:08:10.630Z,6.2114
2023-12-14T15:11:12.167Z,6.21996
2023-12-14T15:14:13.680Z,6.24814
2023-12-14T15:17:15.243Z,6.28235
2023-12-14T15:20:16.859Z,6.32764
2023-12-14T15:23:18.449Z,6.36533
2023-12-14T15:26:20.114Z,6.32859
2023-12-14T15:29:21.842Z,6.2548
2023-12-14T15:32:23.450Z,6.22597
2023-12-14T15:35:25.005Z,6.19208
2023-12-14T15:38:26.607Z,6.18923
2023-12-14T15:41:28.204Z,6.26588
2023-12-14T15:44:29.749Z,6.31086
2023-12-14T15:47:31.424Z,6.37198
2023-12-14T15:50:33.051Z,6.40271
2023-12-14T15:53:34.555Z,6.41981
2023-12-14T15:56:36.396Z,6.43818
2023-12-14T15:59:38.004Z,6.48949
2023-12-14T16:02:39.858Z,6.46447
2023-12-14T16:05:41.643Z,6.47429
2023-12-14T16:08:43.225Z,6.49424
2023-12-14T16:11:44.723Z,6.55917
2023-12-14T16:14:46.237Z,6.55759
2023-12-14T16:17:47.787Z,6.53985
2023-12-14T16:20:49.344Z,6.55125
2023-12-14T16:23:50.821Z,6.5484
2023-12-14T16:26:58.258Z,6.57057
2023-12-14T16:30:00.850Z,6.63423
2023-12-14T16:33:02.523Z,6.68143
2023-12-14T16:36:04.083Z,6.71215
2023-12-14T16:39:05.580Z,6.73115
2023-12-14T16:42:07.104Z,6.72133
2023-12-14T16:45:08.601Z,6.70138
2023-12-14T16:48:10.104Z,6.73369
2023-12-14T16:51:12.413Z,6.69029
2023-12-14T16:54:13.912Z,6.67826
2023-12-14T16:57:15.398Z,6.53795
2023-12-14T17:00:16.899Z,6.43026
2023-12-14T17:03:18.420Z,6.35013
2023-12-14T17:06:20.005Z,6.34348
2023-12-14T17:09:21.582Z,6.31751
2023-12-14T17:12:23.081Z,6.29755
2023-12-14T17:15:24.580Z,6.25796
2023-12-14T17:18:26.237Z,6.20475
2023-12-14T17:21:27.779Z,6.16263
2023-12-14T17:24:29.294Z,6.14743
2023-12-14T17:27:30.771Z,6.12557
2023-12-14T17:30:32.386Z,6.08408
2023-12-14T17:33:35.209Z,6.05304
2023-12-14T17:36:36.788Z,6.03087
2023-12-14T17:39:38.285Z,5.984
2023-12-14T17:42:39.797Z,5.93902
2023-12-14T17:45:41.282Z,5.88138
2023-12-14T17:48:42.862Z,5.82912
2023-12-14T17:51:44.415Z,5.85034
2023-12-14T17:54:45.908Z,5.9026
2023-12-14T17:57:47.425Z,5.94789
2023-12-14T18:00:48.939Z,5.99001
2023-12-14T18:03:50.510Z,6.06698
2023-12-14T18:06:52.002Z,6.12399
2023-12-14T18:09:53.522Z,6.16706
2023-12-14T18:12:55.022Z,6.20475
2023-12-14T18:15:56.513Z,6.20665
2023-12-14T18:18:58.128Z,6.18702
2023-12-14T18:21:59.721Z,6.1262
2023-12-14T18:25:01.212Z,6.10435
2023-12-14T18:28:02.799Z,6.10847
2023-12-14T18:31:04.984Z,6.10879
2023-12-14T18:34:06.585Z,6.09928
2023-12-14T18:37:08.153Z,6.0825
2023-12-14T18:40:09.648Z,6.01662
2023-12-14T18:43:11.467Z,5.90766
2023-12-14T18:46:12.936Z,5.88296
2023-12-14T18:49:14.470Z,5.87473
2023-12-14T18:52:15.978Z,5.85699
2023-12-14T18:55:17.570Z,5.86649
2023-12-14T18:58:19.102Z,5.86459
2023-12-14T19:01:20.714Z,5.81265
2023-12-14T19:04:22.276Z,5.81613
2023-12-14T19:07:23.766Z,5.79839
2023-12-14T19:10:25.262Z,5.78034
2023-12-14T19:13:26.795Z,5.74202
2023-12-14T19:16:28.317Z,5.69261
2023-12-14T19:19:30.181Z,5.64352
2023-12-14T19:22:31.892Z,5.62926
2023-12-14T19:25:33.421Z,5.59949
2023-12-14T19:28:34.936Z,5.57637
2023-12-14T19:31:36.418Z,5.51081
2023-12-14T19:34:37.971Z,5.47439
2023-12-14T19:37:39.567Z,5.48199
2023-12-14T19:40:41.065Z,5.49371
2023-12-14T19:43:42.563Z,5.48294
2023-12-14T19:46:44.089Z,5.48009
2023-12-14T19:49:45.611Z,5.51239
2023-12-14T19:52:47.171Z,5.50986
2023-12-14T19:55:48.700Z,5.44905
2023-12-14T19:58:50.319Z,5.45348
2023-12-14T20:01:51.893Z,5.48199
2023-12-14T20:04:53.458Z,5.49181
2023-12-14T20:07:54.996Z,5.45
2023-12-14T20:10:56.542Z,5.38982
2023-12-14T20:13:58.059Z,5.38475
2023-12-14T20:16:59.623Z,5.34706
2023-12-14T20:20:01.516Z,5.39331
2023-12-14T20:23:03.184Z,5.44905
2023-12-14T20:26:04.790Z,5.49687
2023-12-14T20:29:06.321Z,5.49212
2023-12-14T20:32:07.920Z,5.43891
2023-12-14T20:35:09.548Z,5.44113
2023-12-14T20:38:11.131Z,5.42118
2023-12-14T20:41:12.740Z,5.37335
2023-12-14T20:44:14.354Z,5.37209
2023-12-14T20:47:15.957Z,5.40978
2023-12-14T20:50:17.757Z,5.40597
2023-12-14T20:53:20.293Z,5.42624
2023-12-14T20:56:21.953Z,5.42276
2023-12-14T20:59:23.603Z,5.40914
2023-12-14T21:02:25.822Z,5.31159
2023-12-14T21:05:35.333Z,5.25807
2023-12-14T21:08:45.440Z,5.29164
2023-12-14T21:11:47.528Z,5.30019
2023-12-14T21:14:49.935Z,5.29956
2023-12-14T21:17:52.087Z,5.22766
2023-12-14T21:20:54.089Z,5.15608
2023-12-14T21:23:55.715Z,5.0693
2023-12-14T21:26:58.133Z,5.0484
2023-12-14T21:29:59.729Z,5.05378
2023-12-14T21:33:01.393Z,5.04048
2023-12-14T21:36:03.015Z,5.03541
2023-12-14T21:39:04.524Z,5.06867
2023-12-14T21:42:06.032Z,5.09115
2023-12-14T21:45:07.564Z,5.19472
2023-12-14T21:48:09.108Z,5.24951
2023-12-14T21:51:10.664Z,5.28277
2023-12-14T21:54:12.176Z,5.10826
2023-12-14T21:57:13.672Z,4.98093
2023-12-14T22:00:15.167Z,4.94166
2023-12-14T22:03:16.803Z,4.8894
2023-12-14T22:06:18.350Z,4.82637
2023-12-14T22:09:20.995Z,4.80579
2023-12-14T22:12:22.481Z,4.88718
2023-12-14T22:15:24.007Z,4.92582
2023-12-14T22:18:25.569Z,4.95275
2023-12-14T22:21:27.115Z,4.98885
2023-12-14T22:24:29.609Z,4.94324
2023-12-14T22:27:31.168Z,4.8723
2023-12-14T22:30:32.711Z,4.85615
2023-12-14T22:33:35.312Z,4.90112
2023-12-14T22:36:36.951Z,4.96605
2023-12-14T22:39:38.452Z,5.00849
2023-12-14T22:42:39.960Z,5.00849
2023-12-14T22:45:41.476Z,4.9955
2023-12-14T22:48:43.116Z,4.91442
2023-12-14T22:51:45.191Z,4.82384
2023-12-14T22:54:46.870Z,4.71742
2023-12-14T22:57:49.457Z,4.58123
2023-12-14T23:00:51.223Z,4.61639
2023-12-14T23:03:52.993Z,4.68923
2023-12-14T23:06:54.609Z,4.7567
2023-12-14T23:09:56.131Z,4.84126
2023-12-14T23:12:57.669Z,4.92899
2023-12-14T23:15:59.236Z,5.00057
2023-12-14T23:19:01.042Z,5.03319
2023-12-14T23:22:03.355Z,5.0541
2023-12-14T23:25:05.540Z,5.04776
2023-12-14T23:28:07.119Z,5.04713
2023-12-14T23:31:08.909Z,5.00405
2023-12-14T23:34:10.821Z,4.98442
2023-12-14T23:37:12.621Z,5.03193
2023-12-14T23:40:14.351Z,5.04428
2023-12-14T23:43:15.998Z,4.99899
2023-12-14T23:46:17.596Z,5.00722
2023-12-14T23:49:19.697Z,5.0883
2023-12-14T23:52:21.239Z,5.13834
2023-12-14T23:55:22.753Z,5.14626
2023-12-14T23:58:24.254Z,5.27802
